sensor_id;sensor_type;location;lat;lon;timestamp;P1;durP1;ratioP1;P2;durP2;ratioP2
6342;SDS011;3204;42.698;23.298;2022-12-18T00:01:20;8.57;;;7.87;;
6342;SDS011;3204;42.698;23.298;2022-12-18T00:03:47;7.93;;;7.43;;
6342;SDS011;3204;42.698;23.298;2022-12-18T00:06:14;8.20;;;7.70;;
6342;SDS011;3204;42.698;23.298;2022-12-18T00:08:40;7.50;;;7.10;;
6342;SDS011;3204;42.698;23.298;2022-12-18T00:11:07;7.73;;;7.23;;
6342;SDS011;3204;42.698;23.298;2022-12-18T00:13:35;8.67;;;8.07;;
6342;SDS011;3204;42.698;23.298;2022-12-18T00:16:04;10.17;;;9.37;;
6342;SDS011;3204;42.698;23.298;2022-12-18T00:18:31;8.10;;;7.50;;
6342;SDS011;3204;42.698;23.298;2022-12-18T00:21:00;8.63;;;7.83;;
6342;SDS011;3204;42.698;23.298;2022-12-18T00:23:27;8.30;;;7.80;;
6342;SDS011;3204;42.698;23.298;2022-12-18T00:25:53;9.23;;;8.50;;
6342;SDS011;3204;42.698;23.298;2022-12-18T00:28:19;9.23;;;8.53;;
6342;SDS011;3204;42.698;23.298;2022-12-18T00:30:44;10.17;;;9.27;;
6342;SDS011;3204;42.698;23.298;2022-12-18T00:33:10;9.33;;;8.53;;
6342;SDS011;3204;42.698;23.298;2022-12-18T00:35:35;8.57;;;7.90;;
6342;SDS011;3204;42.698;23.298;2022-12-18T00:38:01;8.30;;;7.70;;
6342;SDS011;3204;42.698;23.298;2022-12-18T00:40:26;8.67;;;7.90;;
6342;SDS011;3204;42.698;23.298;2022-12-18T00:42:52;9.30;;;8.60;;
6342;SDS011;3204;42.698;23.298;2022-12-18T00:45:24;8.67;;;7.87;;
6342;SDS011;3204;42.698;23.298;2022-12-18T00:47:53;8.37;;;7.77;;
6342;SDS011;3204;42.698;23.298;2022-12-18T00:50:20;9.67;;;8.77;;
6342;SDS011;3204;42.698;23.298;2022-12-18T00:52:45;8.60;;;8.00;;
6342;SDS011;3204;42.698;23.298;2022-12-18T00:55:11;11.23;;;10.30;;
6342;SDS011;3204;42.698;23.298;2022-12-18T00:57:37;8.17;;;7.53;;
6342;SDS011;3204;42.698;23.298;2022-12-18T01:00:03;8.60;;;7.73;;
6342;SDS011;3204;42.698;23.298;2022-12-18T01:02:30;8.80;;;8.20;;
6342;SDS011;3204;42.698;23.298;2022-12-18T01:04:55;8.90;;;8.20;;
6342;SDS011;3204;42.698;23.298;2022-12-18T01:07:21;8.93;;;8.13;;
6342;SDS011;3204;42.698;23.298;2022-12-18T01:09:47;9.47;;;8.73;;
6342;SDS011;3204;42.698;23.298;2022-12-18T01:12:12;9.70;;;9.00;;
6342;SDS011;3204;42.698;23.298;2022-12-18T01:14:37;10.57;;;9.77;;
6342;SDS011;3204;42.698;23.298;2022-12-18T01:17:04;9.90;;;9.17;;
6342;SDS011;3204;42.698;23.298;2022-12-18T01:19:29;10.40;;;9.50;;
6342;SDS011;3204;42.698;23.298;2022-12-18T01:21:55;11.10;;;9.97;;
6342;SDS011;3204;42.698;23.298;2022-12-18T01:24:20;11.70;;;10.60;;
6342;SDS011;3204;42.698;23.298;2022-12-18T01:26:46;11.33;;;10.37;;
6342;SDS011;3204;42.698;23.298;2022-12-18T01:29:11;10.10;;;9.30;;
6342;SDS011;3204;42.698;23.298;2022-12-18T01:31:37;10.90;;;9.80;;
6342;SDS011;3204;42.698;23.298;2022-12-18T01:34:03;10.57;;;9.67;;
6342;SDS011;3204;42.698;23.298;2022-12-18T01:36:31;10.23;;;9.33;;
6342;SDS011;3204;42.698;23.298;2022-12-18T01:39:02;13.03;;;10.60;;
6342;SDS011;3204;42.698;23.298;2022-12-18T01:41:30;11.40;;;10.43;;
6342;SDS011;3204;42.698;23.298;2022-12-18T01:50:41;10.50;;;9.60;;
6342;SDS011;3204;42.698;23.298;2022-12-18T01:55:43;9.53;;;8.63;;
6342;SDS011;3204;42.698;23.298;2022-12-18T01:58:12;9.77;;;8.83;;
6342;SDS011;3204;42.698;23.298;2022-12-18T02:00:38;10.23;;;9.33;;
6342;SDS011;3204;42.698;23.298;2022-12-18T02:03:03;9.77;;;8.93;;
6342;SDS011;3204;42.698;23.298;2022-12-18T02:08:26;9.40;;;8.70;;
6342;SDS011;3204;42.698;23.298;2022-12-18T02:16:40;9.13;;;8.37;;
6342;SDS011;3204;42.698;23.298;2022-12-18T02:19:19;10.00;;;9.20;;
6342;SDS011;3204;42.698;23.298;2022-12-18T02:27:24;8.90;;;8.17;;
6342;SDS011;3204;42.698;23.298;2022-12-18T02:29:51;8.43;;;7.63;;
6342;SDS011;3204;42.698;23.298;2022-12-18T02:32:20;9.03;;;8.27;;
6342;SDS011;3204;42.698;23.298;2022-12-18T02:34:51;9.47;;;8.87;;
6342;SDS011;3204;42.698;23.298;2022-12-18T02:37:20;8.53;;;7.93;;
6342;SDS011;3204;42.698;23.298;2022-12-18T02:39:48;9.27;;;8.60;;
6342;SDS011;3204;42.698;23.298;2022-12-18T02:42:16;9.70;;;8.80;;
6342;SDS011;3204;42.698;23.298;2022-12-18T02:44:49;9.77;;;8.77;;
6342;SDS011;3204;42.698;23.298;2022-12-18T02:47:17;10.47;;;9.47;;
6342;SDS011;3204;42.698;23.298;2022-12-18T02:57:55;10.07;;;9.07;;
6342;SDS011;3204;42.698;23.298;2022-12-18T03:00:31;10.03;;;9.13;;
6342;SDS011;3204;42.698;23.298;2022-12-18T03:03:05;9.43;;;8.63;;
6342;SDS011;3204;42.698;23.298;2022-12-18T03:05:38;9.77;;;9.07;;
6342;SDS011;3204;42.698;23.298;2022-12-18T03:08:10;10.90;;;9.57;;
6342;SDS011;3204;42.698;23.298;2022-12-18T03:10:42;11.30;;;9.37;;
6342;SDS011;3204;42.698;23.298;2022-12-18T03:13:20;10.50;;;9.63;;
6342;SDS011;3204;42.698;23.298;2022-12-18T03:15:54;8.77;;;8.07;;
6342;SDS011;3204;42.698;23.298;2022-12-18T03:18:27;9.77;;;8.97;;
6342;SDS011;3204;42.698;23.298;2022-12-18T03:20:58;11.43;;;8.77;;
6342;SDS011;3204;42.698;23.298;2022-12-18T03:23:28;9.60;;;8.90;;
6342;SDS011;3204;42.698;23.298;2022-12-18T03:25:58;9.40;;;8.60;;
6342;SDS011;3204;42.698;23.298;2022-12-18T03:28:27;10.10;;;9.10;;
6342;SDS011;3204;42.698;23.298;2022-12-18T03:30:56;10.13;;;9.23;;
6342;SDS011;3204;42.698;23.298;2022-12-18T03:33:27;9.47;;;8.73;;
6342;SDS011;3204;42.698;23.298;2022-12-18T03:35:59;10.10;;;8.67;;
6342;SDS011;3204;42.698;23.298;2022-12-18T03:38:25;8.40;;;7.70;;
6342;SDS011;3204;42.698;23.298;2022-12-18T03:49:11;9.03;;;8.27;;
6342;SDS011;3204;42.698;23.298;2022-12-18T03:51:43;9.27;;;8.47;;
6342;SDS011;3204;42.698;23.298;2022-12-18T03:54:17;11.10;;;7.90;;
6342;SDS011;3204;42.698;23.298;2022-12-18T03:57:07;9.40;;;8.60;;
6342;SDS011;3204;42.698;23.298;2022-12-18T03:59:39;8.93;;;8.13;;
6342;SDS011;3204;42.698;23.298;2022-12-18T04:02:06;9.80;;;9.00;;
6342;SDS011;3204;42.698;23.298;2022-12-18T04:04:34;9.47;;;8.57;;
6342;SDS011;3204;42.698;23.298;2022-12-18T04:07:02;11.37;;;9.53;;
6342;SDS011;3204;42.698;23.298;2022-12-18T04:09:29;11.00;;;9.87;;
6342;SDS011;3204;42.698;23.298;2022-12-18T04:11:56;12.13;;;10.50;;
6342;SDS011;3204;42.698;23.298;2022-12-18T04:14:22;10.80;;;9.70;;
6342;SDS011;3204;42.698;23.298;2022-12-18T04:16:48;11.60;;;10.53;;
6342;SDS011;3204;42.698;23.298;2022-12-18T04:19:13;10.90;;;9.90;;
6342;SDS011;3204;42.698;23.298;2022-12-18T04:21:39;12.07;;;10.70;;
6342;SDS011;3204;42.698;23.298;2022-12-18T04:24:05;11.10;;;10.07;;
6342;SDS011;3204;42.698;23.298;2022-12-18T04:26:30;11.70;;;10.47;;
6342;SDS011;3204;42.698;23.298;2022-12-18T04:28:55;12.23;;;10.90;;
6342;SDS011;3204;42.698;23.298;2022-12-18T04:31:21;11.60;;;10.37;;
6342;SDS011;3204;42.698;23.298;2022-12-18T04:33:47;11.00;;;10.00;;
6342;SDS011;3204;42.698;23.298;2022-12-18T04:36:12;12.53;;;11.20;;
6342;SDS011;3204;42.698;23.298;2022-12-18T04:38:38;12.63;;;11.30;;
6342;SDS011;3204;42.698;23.298;2022-12-18T04:41:03;13.67;;;10.70;;
6342;SDS011;3204;42.698;23.298;2022-12-18T04:43:29;13.03;;;11.63;;
6342;SDS011;3204;42.698;23.298;2022-12-18T04:46:01;13.70;;;11.30;;
6342;SDS011;3204;42.698;23.298;2022-12-18T04:48:27;12.60;;;11.17;;
6342;SDS011;3204;42.698;23.298;2022-12-18T04:50:53;13.70;;;11.57;;
6342;SDS011;3204;42.698;23.298;2022-12-18T04:53:19;15.13;;;12.40;;
6342;SDS011;3204;42.698;23.298;2022-12-18T04:55:45;19.10;;;13.07;;
6342;SDS011;3204;42.698;23.298;2022-12-18T04:58:10;16.93;;;13.33;;
6342;SDS011;3204;42.698;23.298;2022-12-18T05:00:35;15.27;;;12.60;;
6342;SDS011;3204;42.698;23.298;2022-12-18T05:03:01;16.03;;;11.90;;
6342;SDS011;3204;42.698;23.298;2022-12-18T05:05:27;17.53;;;12.67;;
6342;SDS011;3204;42.698;23.298;2022-12-18T05:07:53;14.73;;;12.23;;
6342;SDS011;3204;42.698;23.298;2022-12-18T05:10:18;18.30;;;13.67;;
6342;SDS011;3204;42.698;23.298;2022-12-18T05:12:44;19.00;;;14.40;;
6342;SDS011;3204;42.698;23.298;2022-12-18T05:15:31;17.77;;;13.30;;
6342;SDS011;3204;42.698;23.298;2022-12-18T05:17:57;19.50;;;13.70;;
6342;SDS011;3204;42.698;23.298;2022-12-18T05:20:24;16.20;;;12.97;;
6342;SDS011;3204;42.698;23.298;2022-12-18T05:22:50;17.90;;;13.53;;
6342;SDS011;3204;42.698;23.298;2022-12-18T05:25:16;20.57;;;14.03;;
6342;SDS011;3204;42.698;23.298;2022-12-18T05:27:42;23.27;;;16.23;;
6342;SDS011;3204;42.698;23.298;2022-12-18T05:30:08;20.77;;;14.33;;
6342;SDS011;3204;42.698;23.298;2022-12-18T05:32:35;15.87;;;13.03;;
6342;SDS011;3204;42.698;23.298;2022-12-18T05:35:00;20.33;;;13.97;;
6342;SDS011;3204;42.698;23.298;2022-12-18T05:37:26;19.17;;;13.27;;
6342;SDS011;3204;42.698;23.298;2022-12-18T05:39:51;16.57;;;12.67;;
6342;SDS011;3204;42.698;23.298;2022-12-18T05:42:16;18.97;;;13.03;;
6342;SDS011;3204;42.698;23.298;2022-12-18T05:44:43;19.93;;;13.53;;
6342;SDS011;3204;42.698;23.298;2022-12-18T05:47:08;17.07;;;13.20;;
6342;SDS011;3204;42.698;23.298;2022-12-18T05:49:34;20.97;;;14.57;;
6342;SDS011;3204;42.698;23.298;2022-12-18T05:51:59;19.13;;;14.73;;
6342;SDS011;3204;42.698;23.298;2022-12-18T05:54:26;19.13;;;13.97;;
6342;SDS011;3204;42.698;23.298;2022-12-18T05:56:53;20.50;;;14.47;;
6342;SDS011;3204;42.698;23.298;2022-12-18T05:59:19;20.87;;;15.10;;
6342;SDS011;3204;42.698;23.298;2022-12-18T06:01:45;22.43;;;15.53;;
6342;SDS011;3204;42.698;23.298;2022-12-18T06:04:10;22.50;;;16.30;;
6342;SDS011;3204;42.698;23.298;2022-12-18T06:06:36;23.10;;;17.10;;
6342;SDS011;3204;42.698;23.298;2022-12-18T06:09:03;22.03;;;15.20;;
6342;SDS011;3204;42.698;23.298;2022-12-18T06:11:34;20.63;;;15.93;;
6342;SDS011;3204;42.698;23.298;2022-12-18T06:14:03;19.87;;;15.03;;
6342;SDS011;3204;42.698;23.298;2022-12-18T06:16:30;20.50;;;15.00;;
6342;SDS011;3204;42.698;23.298;2022-12-18T06:18:59;21.70;;;14.53;;
6342;SDS011;3204;42.698;23.298;2022-12-18T06:21:26;18.77;;;14.37;;
6342;SDS011;3204;42.698;23.298;2022-12-18T06:23:52;18.60;;;14.20;;
6342;SDS011;3204;42.698;23.298;2022-12-18T06:26:17;18.13;;;13.17;;
6342;SDS011;3204;42.698;23.298;2022-12-18T06:28:43;18.93;;;13.60;;
6342;SDS011;3204;42.698;23.298;2022-12-18T06:31:09;18.77;;;14.07;;
6342;SDS011;3204;42.698;23.298;2022-12-18T06:33:35;20.13;;;13.97;;
6342;SDS011;3204;42.698;23.298;2022-12-18T06:36:05;18.30;;;13.60;;
6342;SDS011;3204;42.698;23.298;2022-12-18T06:38:35;19.03;;;13.43;;
6342;SDS011;3204;42.698;23.298;2022-12-18T06:43:38;19.77;;;14.63;;
6342;SDS011;3204;42.698;23.298;2022-12-18T06:46:04;17.87;;;13.27;;
6342;SDS011;3204;42.698;23.298;2022-12-18T06:48:30;18.43;;;14.03;;
6342;SDS011;3204;42.698;23.298;2022-12-18T06:50:55;23.93;;;14.40;;
6342;SDS011;3204;42.698;23.298;2022-12-18T06:53:21;17.37;;;14.30;;
6342;SDS011;3204;42.698;23.298;2022-12-18T06:55:47;18.00;;;13.20;;
6342;SDS011;3204;42.698;23.298;2022-12-18T06:58:14;18.03;;;13.43;;
6342;SDS011;3204;42.698;23.298;2022-12-18T07:00:40;14.70;;;12.67;;
6342;SDS011;3204;42.698;23.298;2022-12-18T07:03:06;16.37;;;12.47;;
6342;SDS011;3204;42.698;23.298;2022-12-18T07:05:31;17.47;;;12.70;;
6342;SDS011;3204;42.698;23.298;2022-12-18T07:07:57;19.03;;;13.13;;
6342;SDS011;3204;42.698;23.298;2022-12-18T07:10:23;18.10;;;13.87;;
6342;SDS011;3204;42.698;23.298;2022-12-18T07:12:48;18.40;;;13.97;;
6342;SDS011;3204;42.698;23.298;2022-12-18T07:15:13;22.53;;;15.70;;
6342;SDS011;3204;42.698;23.298;2022-12-18T07:17:39;22.20;;;14.10;;
6342;SDS011;3204;42.698;23.298;2022-12-18T07:20:04;21.23;;;14.40;;
6342;SDS011;3204;42.698;23.298;2022-12-18T07:22:32;22.93;;;16.30;;
6342;SDS011;3204;42.698;23.298;2022-12-18T07:24:57;24.93;;;15.10;;
6342;SDS011;3204;42.698;23.298;2022-12-18T07:27:23;25.40;;;16.33;;
6342;SDS011;3204;42.698;23.298;2022-12-18T07:29:49;26.67;;;16.20;;
6342;SDS011;3204;42.698;23.298;2022-12-18T07:32:15;22.30;;;16.17;;
6342;SDS011;3204;42.698;23.298;2022-12-18T07:34:42;26.37;;;17.13;;
6342;SDS011;3204;42.698;23.298;2022-12-18T07:37:07;25.77;;;16.67;;
6342;SDS011;3204;42.698;23.298;2022-12-18T07:39:33;32.03;;;18.47;;
6342;SDS011;3204;42.698;23.298;2022-12-18T07:41:59;26.23;;;17.60;;
6342;SDS011;3204;42.698;23.298;2022-12-18T07:44:43;28.27;;;17.93;;
6342;SDS011;3204;42.698;23.298;2022-12-18T07:47:08;26.90;;;18.47;;
6342;SDS011;3204;42.698;23.298;2022-12-18T07:49:34;24.03;;;16.60;;
6342;SDS011;3204;42.698;23.298;2022-12-18T07:51:59;26.57;;;17.27;;
6342;SDS011;3204;42.698;23.298;2022-12-18T07:54:25;28.03;;;17.23;;
6342;SDS011;3204;42.698;23.298;2022-12-18T07:56:50;25.37;;;17.50;;
6342;SDS011;3204;42.698;23.298;2022-12-18T07:59:17;27.77;;;16.97;;
6342;SDS011;3204;42.698;23.298;2022-12-18T08:01:43;27.10;;;16.93;;
6342;SDS011;3204;42.698;23.298;2022-12-18T08:04:09;29.30;;;19.13;;
6342;SDS011;3204;42.698;23.298;2022-12-18T08:06:34;30.50;;;19.63;;
6342;SDS011;3204;42.698;23.298;2022-12-18T08:09:00;28.97;;;17.83;;
6342;SDS011;3204;42.698;23.298;2022-12-18T08:11:26;28.30;;;19.37;;
6342;SDS011;3204;42.698;23.298;2022-12-18T08:13:53;30.43;;;19.23;;
6342;SDS011;3204;42.698;23.298;2022-12-18T08:16:19;25.57;;;16.77;;
6342;SDS011;3204;42.698;23.298;2022-12-18T08:18:45;25.37;;;17.80;;
6342;SDS011;3204;42.698;23.298;2022-12-18T08:21:13;24.63;;;17.43;;
6342;SDS011;3204;42.698;23.298;2022-12-18T08:23:40;27.77;;;18.00;;
6342;SDS011;3204;42.698;23.298;2022-12-18T08:26:06;22.03;;;16.13;;
6342;SDS011;3204;42.698;23.298;2022-12-18T08:28:32;22.43;;;15.87;;
6342;SDS011;3204;42.698;23.298;2022-12-18T08:30:57;26.80;;;17.50;;
6342;SDS011;3204;42.698;23.298;2022-12-18T08:33:23;23.83;;;16.47;;
6342;SDS011;3204;42.698;23.298;2022-12-18T08:35:48;26.43;;;17.90;;
6342;SDS011;3204;42.698;23.298;2022-12-18T08:38:14;25.17;;;15.80;;
6342;SDS011;3204;42.698;23.298;2022-12-18T08:40:40;27.37;;;18.20;;
6342;SDS011;3204;42.698;23.298;2022-12-18T08:43:05;26.27;;;18.03;;
6342;SDS011;3204;42.698;23.298;2022-12-18T08:45:50;25.47;;;16.57;;
6342;SDS011;3204;42.698;23.298;2022-12-18T08:48:16;21.90;;;15.87;;
6342;SDS011;3204;42.698;23.298;2022-12-18T08:50:42;26.43;;;18.27;;
6342;SDS011;3204;42.698;23.298;2022-12-18T08:53:07;24.77;;;16.60;;
6342;SDS011;3204;42.698;23.298;2022-12-18T08:55:34;25.03;;;17.50;;
6342;SDS011;3204;42.698;23.298;2022-12-18T08:57:59;21.30;;;15.33;;
6342;SDS011;3204;42.698;23.298;2022-12-18T09:00:25;26.67;;;18.30;;
6342;SDS011;3204;42.698;23.298;2022-12-18T09:02:51;20.70;;;14.63;;
6342;SDS011;3204;42.698;23.298;2022-12-18T09:05:16;21.50;;;14.80;;
6342;SDS011;3204;42.698;23.298;2022-12-18T09:07:41;20.27;;;14.30;;
6342;SDS011;3204;42.698;23.298;2022-12-18T09:10:07;23.07;;;14.93;;
6342;SDS011;3204;42.698;23.298;2022-12-18T09:12:33;22.30;;;14.03;;
6342;SDS011;3204;42.698;23.298;2022-12-18T09:14:58;22.73;;;14.93;;
6342;SDS011;3204;42.698;23.298;2022-12-18T09:17:24;22.47;;;16.03;;
6342;SDS011;3204;42.698;23.298;2022-12-18T09:19:49;18.73;;;14.43;;
6342;SDS011;3204;42.698;23.298;2022-12-18T09:22:15;20.67;;;14.27;;
6342;SDS011;3204;42.698;23.298;2022-12-18T09:24:41;19.80;;;13.40;;
6342;SDS011;3204;42.698;23.298;2022-12-18T09:27:06;19.43;;;14.80;;
6342;SDS011;3204;42.698;23.298;2022-12-18T09:29:32;20.43;;;14.60;;
6342;SDS011;3204;42.698;23.298;2022-12-18T09:31:57;26.30;;;14.93;;
6342;SDS011;3204;42.698;23.298;2022-12-18T09:34:23;24.50;;;15.57;;
6342;SDS011;3204;42.698;23.298;2022-12-18T09:36:49;23.70;;;15.83;;
6342;SDS011;3204;42.698;23.298;2022-12-18T09:39:15;26.27;;;15.33;;
6342;SDS011;3204;42.698;23.298;2022-12-18T09:41:42;24.03;;;15.40;;
6342;SDS011;3204;42.698;23.298;2022-12-18T09:44:21;23.30;;;14.93;;
6342;SDS011;3204;42.698;23.298;2022-12-18T09:47:13;28.07;;;15.70;;
6342;SDS011;3204;42.698;23.298;2022-12-18T09:49:44;27.10;;;16.43;;
6342;SDS011;3204;42.698;23.298;2022-12-18T09:52:13;19.63;;;14.07;;
6342;SDS011;3204;42.698;23.298;2022-12-18T09:54:48;23.00;;;15.70;;
6342;SDS011;3204;42.698;23.298;2022-12-18T09:57:20;19.77;;;13.00;;
6342;SDS011;3204;42.698;23.298;2022-12-18T09:59:55;25.97;;;15.73;;
6342;SDS011;3204;42.698;23.298;2022-12-18T10:02:24;20.40;;;15.07;;
6342;SDS011;3204;42.698;23.298;2022-12-18T10:05:07;17.33;;;12.77;;
6342;SDS011;3204;42.698;23.298;2022-12-18T10:07:55;19.20;;;13.97;;
6342;SDS011;3204;42.698;23.298;2022-12-18T10:21:32;29.17;;;17.93;;
6342;SDS011;3204;42.698;23.298;2022-12-18T10:26:41;26.57;;;15.87;;
6342;SDS011;3204;42.698;23.298;2022-12-18T10:29:10;22.90;;;16.13;;
6342;SDS011;3204;42.698;23.298;2022-12-18T10:31:37;25.50;;;16.77;;
6342;SDS011;3204;42.698;23.298;2022-12-18T10:34:03;23.07;;;14.87;;
6342;SDS011;3204;42.698;23.298;2022-12-18T10:36:32;24.80;;;16.73;;
6342;SDS011;3204;42.698;23.298;2022-12-18T10:41:41;31.83;;;19.00;;
6342;SDS011;3204;42.698;23.298;2022-12-18T10:44:10;28.83;;;17.47;;
6342;SDS011;3204;42.698;23.298;2022-12-18T10:46:55;27.30;;;17.07;;
6342;SDS011;3204;42.698;23.298;2022-12-18T10:49:30;22.97;;;15.83;;
6342;SDS011;3204;42.698;23.298;2022-12-18T10:52:30;26.17;;;16.03;;
6342;SDS011;3204;42.698;23.298;2022-12-18T10:55:00;25.43;;;16.70;;
6342;SDS011;3204;42.698;23.298;2022-12-18T10:57:33;24.33;;;16.17;;
6342;SDS011;3204;42.698;23.298;2022-12-18T11:02:52;28.63;;;18.43;;
6342;SDS011;3204;42.698;23.298;2022-12-18T11:05:31;22.13;;;14.87;;
6342;SDS011;3204;42.698;23.298;2022-12-18T11:07:59;19.77;;;14.80;;
6342;SDS011;3204;42.698;23.298;2022-12-18T11:10:47;18.47;;;14.17;;
6342;SDS011;3204;42.698;23.298;2022-12-18T11:13:21;18.57;;;13.57;;
6342;SDS011;3204;42.698;23.298;2022-12-18T11:15:49;21.47;;;15.20;;
6342;SDS011;3204;42.698;23.298;2022-12-18T11:23:32;24.73;;;17.20;;
6342;SDS011;3204;42.698;23.298;2022-12-18T11:26:00;25.17;;;15.97;;
6342;SDS011;3204;42.698;23.298;2022-12-18T11:33:52;22.67;;;15.43;;
6342;SDS011;3204;42.698;23.298;2022-12-18T11:36:22;28.90;;;17.33;;
6342;SDS011;3204;42.698;23.298;2022-12-18T11:38:49;23.17;;;16.13;;
6342;SDS011;3204;42.698;23.298;2022-12-18T11:41:27;23.10;;;14.67;;
6342;SDS011;3204;42.698;23.298;2022-12-18T11:44:24;19.20;;;14.37;;
6342;SDS011;3204;42.698;23.298;2022-12-18T11:47:00;18.77;;;13.63;;
6342;SDS011;3204;42.698;23.298;2022-12-18T11:49:33;23.63;;;14.27;;
6342;SDS011;3204;42.698;23.298;2022-12-18T11:54:43;29.77;;;18.90;;
6342;SDS011;3204;42.698;23.298;2022-12-18T12:00:12;30.50;;;18.80;;
6342;SDS011;3204;42.698;23.298;2022-12-18T12:08:49;29.77;;;18.10;;
6342;SDS011;3204;42.698;23.298;2022-12-18T12:14:18;26.67;;;17.20;;
6342;SDS011;3204;42.698;23.298;2022-12-18T12:17:11;26.97;;;16.10;;
6342;SDS011;3204;42.698;23.298;2022-12-18T12:19:53;24.87;;;16.37;;
6342;SDS011;3204;42.698;23.298;2022-12-18T12:25:36;25.27;;;16.03;;
6342;SDS011;3204;42.698;23.298;2022-12-18T12:36:17;21.40;;;14.50;;
6342;SDS011;3204;42.698;23.298;2022-12-18T12:38:49;26.63;;;16.50;;
6342;SDS011;3204;42.698;23.298;2022-12-18T12:41:20;20.67;;;14.90;;
6342;SDS011;3204;42.698;23.298;2022-12-18T12:44:09;28.60;;;16.60;;
6342;SDS011;3204;42.698;23.298;2022-12-18T12:46:41;25.70;;;16.77;;
6342;SDS011;3204;42.698;23.298;2022-12-18T12:49:15;30.93;;;17.53;;
6342;SDS011;3204;42.698;23.298;2022-12-18T12:51:45;23.30;;;15.93;;
6342;SDS011;3204;42.698;23.298;2022-12-18T12:54:17;23.10;;;15.87;;
6342;SDS011;3204;42.698;23.298;2022-12-18T12:56:48;25.60;;;17.07;;
6342;SDS011;3204;42.698;23.298;2022-12-18T13:04:58;18.10;;;13.23;;
6342;SDS011;3204;42.698;23.298;2022-12-18T13:07:35;19.97;;;14.00;;
6342;SDS011;3204;42.698;23.298;2022-12-18T13:10:13;21.03;;;13.90;;
6342;SDS011;3204;42.698;23.298;2022-12-18T13:15:45;22.73;;;15.33;;
6342;SDS011;3204;42.698;23.298;2022-12-18T13:18:22;26.73;;;16.80;;
6342;SDS011;3204;42.698;23.298;2022-12-18T13:21:32;22.50;;;15.80;;
6342;SDS011;3204;42.698;23.298;2022-12-18T13:23:45;23.70;;;16.47;;
6342;SDS011;3204;42.698;23.298;2022-12-18T13:36:42;22.60;;;15.33;;
6342;SDS011;3204;42.698;23.298;2022-12-18T13:39:15;22.53;;;15.87;;
6342;SDS011;3204;42.698;23.298;2022-12-18T13:41:48;23.77;;;16.17;;
6342;SDS011;3204;42.698;23.298;2022-12-18T13:44:36;26.77;;;16.50;;
6342;SDS011;3204;42.698;23.298;2022-12-18T13:47:05;22.00;;;15.57;;
6342;SDS011;3204;42.698;23.298;2022-12-18T13:49:53;22.30;;;15.27;;
6342;SDS011;3204;42.698;23.298;2022-12-18T13:52:26;25.03;;;15.87;;
6342;SDS011;3204;42.698;23.298;2022-12-18T13:54:58;21.53;;;15.07;;
6342;SDS011;3204;42.698;23.298;2022-12-18T13:57:33;24.20;;;15.53;;
6342;SDS011;3204;42.698;23.298;2022-12-18T14:02:47;19.53;;;14.13;;
6342;SDS011;3204;42.698;23.298;2022-12-18T14:05:23;23.23;;;15.50;;
6342;SDS011;3204;42.698;23.298;2022-12-18T14:07:48;20.33;;;14.67;;
6342;SDS011;3204;42.698;23.298;2022-12-18T14:10:15;21.47;;;14.17;;
6342;SDS011;3204;42.698;23.298;2022-12-18T14:12:44;16.53;;;11.83;;
6342;SDS011;3204;42.698;23.298;2022-12-18T14:15:31;17.17;;;12.73;;
6342;SDS011;3204;42.698;23.298;2022-12-18T14:20:51;19.17;;;13.87;;
6342;SDS011;3204;42.698;23.298;2022-12-18T14:25:54;18.43;;;13.10;;
6342;SDS011;3204;42.698;23.298;2022-12-18T14:28:19;20.40;;;14.10;;
6342;SDS011;3204;42.698;23.298;2022-12-18T14:30:46;20.50;;;13.30;;
6342;SDS011;3204;42.698;23.298;2022-12-18T14:33:14;20.03;;;13.17;;
6342;SDS011;3204;42.698;23.298;2022-12-18T14:35:51;20.73;;;13.60;;
6342;SDS011;3204;42.698;23.298;2022-12-18T14:38:20;19.10;;;13.47;;
6342;SDS011;3204;42.698;23.298;2022-12-18T14:40:58;18.57;;;13.13;;
6342;SDS011;3204;42.698;23.298;2022-12-18T14:43:26;19.07;;;13.13;;
6342;SDS011;3204;42.698;23.298;2022-12-18T14:45:53;23.93;;;13.93;;
6342;SDS011;3204;42.698;23.298;2022-12-18T14:48:20;20.73;;;13.93;;
6342;SDS011;3204;42.698;23.298;2022-12-18T14:50:53;19.83;;;13.27;;
6342;SDS011;3204;42.698;23.298;2022-12-18T14:56:01;20.23;;;13.73;;
6342;SDS011;3204;42.698;23.298;2022-12-18T14:58:28;15.57;;;10.93;;
6342;SDS011;3204;42.698;23.298;2022-12-18T15:00:54;15.17;;;11.80;;
6342;SDS011;3204;42.698;23.298;2022-12-18T15:03:20;16.93;;;11.90;;
6342;SDS011;3204;42.698;23.298;2022-12-18T15:05:46;19.93;;;12.40;;
6342;SDS011;3204;42.698;23.298;2022-12-18T15:08:27;24.63;;;14.40;;
6342;SDS011;3204;42.698;23.298;2022-12-18T15:10:55;26.17;;;15.67;;
6342;SDS011;3204;42.698;23.298;2022-12-18T15:13:22;24.03;;;14.10;;
6342;SDS011;3204;42.698;23.298;2022-12-18T15:15:49;21.63;;;13.00;;
6342;SDS011;3204;42.698;23.298;2022-12-18T15:18:16;22.73;;;15.00;;
6342;SDS011;3204;42.698;23.298;2022-12-18T15:20:52;16.63;;;12.70;;
6342;SDS011;3204;42.698;23.298;2022-12-18T15:23:25;19.97;;;12.73;;
6342;SDS011;3204;42.698;23.298;2022-12-18T15:25:55;18.20;;;12.50;;
6342;SDS011;3204;42.698;23.298;2022-12-18T15:28:46;13.90;;;10.43;;
6342;SDS011;3204;42.698;23.298;2022-12-18T15:33:44;30.90;;;14.67;;
6342;SDS011;3204;42.698;23.298;2022-12-18T15:36:25;18.07;;;11.33;;
6342;SDS011;3204;42.698;23.298;2022-12-18T15:39:01;41.77;;;18.90;;
6342;SDS011;3204;42.698;23.298;2022-12-18T15:41:27;24.53;;;13.07;;
6342;SDS011;3204;42.698;23.298;2022-12-18T15:43:55;26.23;;;14.97;;
6342;SDS011;3204;42.698;23.298;2022-12-18T15:46:22;24.70;;;14.57;;
6342;SDS011;3204;42.698;23.298;2022-12-18T15:48:50;23.90;;;13.07;;
6342;SDS011;3204;42.698;23.298;2022-12-18T15:53:46;18.87;;;12.90;;
6342;SDS011;3204;42.698;23.298;2022-12-18T15:56:14;20.77;;;13.50;;
6342;SDS011;3204;42.698;23.298;2022-12-18T15:58:59;22.50;;;13.37;;
6342;SDS011;3204;42.698;23.298;2022-12-18T16:01:26;26.10;;;15.03;;
6342;SDS011;3204;42.698;23.298;2022-12-18T16:03:53;27.60;;;16.97;;
6342;SDS011;3204;42.698;23.298;2022-12-18T16:06:20;23.30;;;15.47;;
6342;SDS011;3204;42.698;23.298;2022-12-18T16:08:46;22.53;;;14.03;;
6342;SDS011;3204;42.698;23.298;2022-12-18T16:16:47;25.17;;;15.30;;
6342;SDS011;3204;42.698;23.298;2022-12-18T16:19:15;27.13;;;17.60;;
6342;SDS011;3204;42.698;23.298;2022-12-18T16:21:41;35.20;;;18.83;;
6342;SDS011;3204;42.698;23.298;2022-12-18T16:24:17;31.83;;;16.57;;
6342;SDS011;3204;42.698;23.298;2022-12-18T16:26:44;24.03;;;16.13;;
6342;SDS011;3204;42.698;23.298;2022-12-18T16:29:10;24.40;;;15.20;;
6342;SDS011;3204;42.698;23.298;2022-12-18T16:31:35;27.93;;;16.00;;
6342;SDS011;3204;42.698;23.298;2022-12-18T16:36:51;24.73;;;15.90;;
6342;SDS011;3204;42.698;23.298;2022-12-18T16:39:18;24.97;;;15.73;;
6342;SDS011;3204;42.698;23.298;2022-12-18T16:41:43;22.03;;;14.47;;
6342;SDS011;3204;42.698;23.298;2022-12-18T16:44:09;25.57;;;15.77;;
6342;SDS011;3204;42.698;23.298;2022-12-18T16:46:35;26.93;;;16.10;;
6342;SDS011;3204;42.698;23.298;2022-12-18T16:49:02;21.53;;;15.20;;
6342;SDS011;3204;42.698;23.298;2022-12-18T16:51:29;28.20;;;16.77;;
6342;SDS011;3204;42.698;23.298;2022-12-18T16:53:57;25.43;;;15.97;;
6342;SDS011;3204;42.698;23.298;2022-12-18T16:56:23;26.10;;;17.33;;
6342;SDS011;3204;42.698;23.298;2022-12-18T16:58:52;27.20;;;17.07;;
6342;SDS011;3204;42.698;23.298;2022-12-18T17:01:22;28.13;;;17.30;;
6342;SDS011;3204;42.698;23.298;2022-12-18T17:03:52;25.70;;;17.33;;
6342;SDS011;3204;42.698;23.298;2022-12-18T17:06:20;28.77;;;19.47;;
6342;SDS011;3204;42.698;23.298;2022-12-18T17:08:46;32.57;;;18.33;;
6342;SDS011;3204;42.698;23.298;2022-12-18T17:11:12;25.67;;;15.73;;
6342;SDS011;3204;42.698;23.298;2022-12-18T17:13:38;26.80;;;16.77;;